RJFZ(METAR)
05/21 23:00
METAR RJFZ 211400Z 26006KT 9999 FEW025 15/13 Q1007 RMK 1SC025 A2976=
戻る
トップページへ戻る
IMOC Co,.Ltd.